createdAt,value
2022-10-01T00:00:47.883Z,5.51
2022-10-01T00:01:50.993Z,6.63
2022-10-01T00:02:54.095Z,5.80
2022-10-01T00:03:56.943Z,5.62
2022-10-01T00:04:59.737Z,6.35
2022-10-01T00:06:06.250Z,6.51
2022-10-01T00:07:11.120Z,5.96
2022-10-01T00:08:14.836Z,6.43
2022-10-01T00:09:17.720Z,5.78
2022-10-01T00:10:33.946Z,6.67
2022-10-01T00:11:35.761Z,6.51
2022-10-01T00:12:43.612Z,7.08
2022-10-01T00:13:47.370Z,6.29
2022-10-01T00:14:50.508Z,6.08
2022-10-01T00:15:53.342Z,7.72
2022-10-01T00:16:56.134Z,6.25
2022-10-01T00:17:59.171Z,6.53
2022-10-01T00:19:02.821Z,6.50
2022-10-01T00:20:14.017Z,6.70
2022-10-01T00:21:14.336Z,7.79
2022-10-01T00:22:18.597Z,6.65
2022-10-01T00:23:21.452Z,7.01
2022-10-01T00:24:24.414Z,7.11
2022-10-01T00:25:27.388Z,7.89
2022-10-01T00:26:32.917Z,7.03
2022-10-01T00:28:03.162Z,6.13
2022-10-01T00:29:14.920Z,6.66
2022-10-01T00:30:17.979Z,6.66
2022-10-01T00:31:21.320Z,7.01
2022-10-01T00:32:24.818Z,6.99
2022-10-01T00:33:27.771Z,7.11
2022-10-01T00:34:30.694Z,6.43
2022-10-01T00:35:33.379Z,6.32
2022-10-01T00:36:36.352Z,6.71
2022-10-01T00:37:39.218Z,6.24
2022-10-01T00:38:42.055Z,6.35
2022-10-01T00:39:45.006Z,7.30
2022-10-01T00:40:47.735Z,7.21
2022-10-01T00:41:51.143Z,5.69
2022-10-01T00:42:54.021Z,8.38
2022-10-01T00:44:00.167Z,6.67
2022-10-01T00:45:03.584Z,6.29
2022-10-01T00:46:25.476Z,6.84
2022-10-01T00:47:39.501Z,6.47
2022-10-01T00:50:27.732Z,6.33
2022-10-01T00:51:34.663Z,8.29
2022-10-01T00:52:40.607Z,7.33
2022-10-01T00:53:45.772Z,7.25
2022-10-01T00:54:51.984Z,6.98
2022-10-01T00:55:57.785Z,6.31
2022-10-01T00:57:02.550Z,11.09
2022-10-01T00:58:08.049Z,6.91
2022-10-01T00:59:12.937Z,6.17
2022-10-01T01:00:16.220Z,8.36
2022-10-01T01:01:19.950Z,6.39
2022-10-01T01:02:22.941Z,6.33
2022-10-01T01:03:26.419Z,7.03
2022-10-01T01:04:29.260Z,7.51
2022-10-01T01:05:32.206Z,6.91
2022-10-01T01:06:35.211Z,6.54
2022-10-01T01:07:39.758Z,6.57
2022-10-01T01:08:43.106Z,7.15
2022-10-01T01:09:48.880Z,6.29
2022-10-01T01:11:20.779Z,6.21
2022-10-01T01:12:27.278Z,7.02
2022-10-01T01:15:04.159Z,6.79
2022-10-01T01:16:25.828Z,6.03
2022-10-01T01:17:51.899Z,9.92
2022-10-01T01:19:22.367Z,6.46
2022-10-01T01:20:35.928Z,6.04
2022-10-01T01:21:45.210Z,6.11
2022-10-01T01:22:57.598Z,6.37
2022-10-01T01:24:13.254Z,7.73
2022-10-01T01:25:18.982Z,6.22
2022-10-01T01:26:31.331Z,6.92
2022-10-01T01:27:38.016Z,5.96
2022-10-01T01:28:44.532Z,6.43
2022-10-01T01:30:03.993Z,6.31
2022-10-01T01:31:13.991Z,5.86
2022-10-01T01:32:21.237Z,5.74
2022-10-01T01:33:27.162Z,6.83
2022-10-01T01:34:33.564Z,6.96
2022-10-01T01:35:39.991Z,6.46
2022-10-01T01:36:46.420Z,6.61
2022-10-01T01:37:53.024Z,5.54
2022-10-01T01:38:59.475Z,7.19
2022-10-01T01:40:05.644Z,5.39
2022-10-01T01:41:11.134Z,6.13
2022-10-01T01:42:17.655Z,6.11
2022-10-01T01:43:24.201Z,6.41
2022-10-01T01:44:30.742Z,6.05
2022-10-01T01:45:35.801Z,6.13
2022-10-01T01:46:42.769Z,6.24
2022-10-01T01:47:46.292Z,5.76
2022-10-01T01:48:52.742Z,6.73
2022-10-01T01:49:56.970Z,6.98
2022-10-01T01:51:06.276Z,6.62
2022-10-01T01:52:15.489Z,5.99
2022-10-01T01:53:19.767Z,6.24
2022-10-01T01:54:22.730Z,6.54
2022-10-01T01:55:29.535Z,6.76
2022-10-01T01:56:33.869Z,7.03
2022-10-01T01:57:42.907Z,6.87
2022-10-01T01:58:46.494Z,9.01
2022-10-01T01:59:49.463Z,6.08
2022-10-01T02:00:52.387Z,6.79
2022-10-01T02:01:55.418Z,6.13
2022-10-01T02:02:58.686Z,6.53
2022-10-01T02:04:04.893Z,6.47
2022-10-01T02:05:11.503Z,6.61
2022-10-01T02:06:20.735Z,6.73
2022-10-01T02:07:55.286Z,6.45
2022-10-01T02:09:01.827Z,6.37
2022-10-01T02:10:26.738Z,6.42
2022-10-01T02:11:38.785Z,6.58
2022-10-01T02:13:04.660Z,6.28
2022-10-01T02:14:13.728Z,5.72
2022-10-01T02:15:27.028Z,6.41
2022-10-01T02:16:50.298Z,7.93
2022-10-01T02:18:02.831Z,5.99
2022-10-01T02:19:33.151Z,6.42
2022-10-01T02:20:45.405Z,8.31
2022-10-01T02:21:51.871Z,7.35
2022-10-01T02:22:58.312Z,7.16
2022-10-01T02:24:17.027Z,7.06
2022-10-01T02:25:25.188Z,6.94
2022-10-01T02:26:30.219Z,7.28
2022-10-01T02:27:43.869Z,6.99
2022-10-01T02:28:49.779Z,6.59
2022-10-01T02:29:55.652Z,7.17
2022-10-01T02:31:00.353Z,7.37
2022-10-01T02:32:03.402Z,5.59
2022-10-01T02:33:09.288Z,6.68
2022-10-01T02:34:18.268Z,6.34
2022-10-01T02:35:21.457Z,6.16
2022-10-01T02:36:25.544Z,6.86
2022-10-01T02:37:28.738Z,7.37
2022-10-01T02:38:34.693Z,6.83
2022-10-01T02:39:40.824Z,7.55
2022-10-01T02:40:46.662Z,6.97
2022-10-01T02:41:52.379Z,7.41
2022-10-01T02:42:58.278Z,8.66
2022-10-01T02:44:07.519Z,8.20
2022-10-01T02:45:13.325Z,9.17
2022-10-01T02:46:32.508Z,8.39
2022-10-01T02:47:47.610Z,8.48
2022-10-01T02:48:51.182Z,8.65
2022-10-01T02:49:54.248Z,10.41
2022-10-01T02:51:03.781Z,7.79
2022-10-01T02:52:25.477Z,7.61
2022-10-01T02:53:41.099Z,8.12
2022-10-01T02:54:53.560Z,8.77
2022-10-01T02:55:58.021Z,7.88
2022-10-01T02:57:19.542Z,7.74
2022-10-01T02:58:22.651Z,9.36
2022-10-01T02:59:25.757Z,7.51
2022-10-01T03:00:28.929Z,8.59
2022-10-01T03:01:32.058Z,12.41
2022-10-01T03:02:35.075Z,7.29
2022-10-01T03:03:39.617Z,8.30
2022-10-01T03:04:42.662Z,8.00
2022-10-01T03:05:45.705Z,8.87
2022-10-01T03:06:48.309Z,8.79
2022-10-01T03:07:50.912Z,8.23
2022-10-01T03:08:53.981Z,10.47
2022-10-01T03:09:56.929Z,8.54
2022-10-01T03:11:00.493Z,9.11
2022-10-01T03:12:03.715Z,8.05
2022-10-01T03:13:06.913Z,8.09
2022-10-01T03:14:10.537Z,9.14
2022-10-01T03:15:14.973Z,9.00
2022-10-01T03:16:17.865Z,8.52
2022-10-01T03:17:21.156Z,9.13
2022-10-01T03:18:23.885Z,10.70
2022-10-01T03:19:26.670Z,8.66
2022-10-01T03:20:29.627Z,9.11
2022-10-01T03:21:33.043Z,10.67
2022-10-01T03:22:36.277Z,9.81
2022-10-01T03:23:38.951Z,9.74
2022-10-01T03:24:41.651Z,9.38
2022-10-01T03:25:44.289Z,11.84
2022-10-01T03:26:47.133Z,10.71
2022-10-01T03:27:49.875Z,11.04
2022-10-01T03:28:52.872Z,10.56
2022-10-01T03:29:55.587Z,10.29
2022-10-01T03:31:06.473Z,11.64
2022-10-01T03:32:09.572Z,10.63
2022-10-01T03:33:12.480Z,11.00
2022-10-01T03:34:15.413Z,10.76
2022-10-01T03:35:18.427Z,10.24
2022-10-01T03:36:21.151Z,10.85
2022-10-01T03:37:24.375Z,10.59
2022-10-01T03:38:27.547Z,11.00
2022-10-01T03:39:30.904Z,10.71
2022-10-01T03:40:35.536Z,10.51
2022-10-01T03:41:39.456Z,11.50
2022-10-01T03:42:42.193Z,10.23
2022-10-01T03:43:45.124Z,11.97
2022-10-01T03:44:47.984Z,10.68
2022-10-01T03:45:50.844Z,11.43
2022-10-01T03:46:54.042Z,11.46
2022-10-01T03:47:56.676Z,12.40
2022-10-01T03:49:00.286Z,12.21
2022-10-01T03:50:03.444Z,12.24
2022-10-01T03:51:06.618Z,12.18
2022-10-01T03:52:09.315Z,12.16
2022-10-01T03:53:11.894Z,13.21
2022-10-01T03:54:14.704Z,14.49
2022-10-01T03:55:18.722Z,12.96
2022-10-01T03:56:21.805Z,13.68
2022-10-01T03:57:24.418Z,13.44
2022-10-01T03:58:26.900Z,13.59
2022-10-01T03:59:29.582Z,14.31
2022-10-01T04:00:32.486Z,13.76
2022-10-01T04:01:35.699Z,14.30
2022-10-01T04:02:38.908Z,14.07
2022-10-01T04:03:42.918Z,12.91
2022-10-01T04:04:45.611Z,17.34
2022-10-01T04:05:48.405Z,13.53
2022-10-01T04:06:52.639Z,14.38
2022-10-01T04:07:55.704Z,14.33
2022-10-01T04:08:58.414Z,13.74
2022-10-01T04:10:01.224Z,14.39
2022-10-01T04:11:06.420Z,13.36
2022-10-01T04:12:09.560Z,13.88
2022-10-01T04:13:12.401Z,13.85
2022-10-01T04:14:15.086Z,14.50
2022-10-01T04:15:17.665Z,14.79
2022-10-01T04:16:20.448Z,16.53
2022-10-01T04:17:23.413Z,14.40
2022-10-01T04:18:26.339Z,14.61
2022-10-01T04:19:29.033Z,13.38
2022-10-01T04:20:33.115Z,13.62
2022-10-01T04:21:38.453Z,15.55
2022-10-01T04:22:42.262Z,15.85
2022-10-01T04:23:45.233Z,14.01
2022-10-01T04:24:48.086Z,14.29
2022-10-01T04:25:51.322Z,14.59
2022-10-01T04:26:54.224Z,14.52
2022-10-01T04:28:02.454Z,14.42
2022-10-01T04:29:05.561Z,14.99
2022-10-01T04:30:09.977Z,15.13
2022-10-01T04:31:25.839Z,14.32
2022-10-01T04:32:28.715Z,14.29
2022-10-01T04:33:31.508Z,14.09
2022-10-01T04:34:52.371Z,13.73
2022-10-01T04:36:57.755Z,13.53
2022-10-01T04:38:04.039Z,15.06
2022-10-01T04:39:06.705Z,14.73
2022-10-01T04:40:13.075Z,15.24
2022-10-01T04:41:16.348Z,15.11
2022-10-01T04:42:19.963Z,15.31
2022-10-01T04:43:22.610Z,14.40
2022-10-01T04:44:25.575Z,13.87
2022-10-01T04:45:28.345Z,13.67
2022-10-01T04:46:31.207Z,14.49
2022-10-01T04:47:37.512Z,16.88
2022-10-01T04:48:38.771Z,14.19
2022-10-01T04:49:41.445Z,14.47
2022-10-01T04:50:44.413Z,15.57
2022-10-01T04:51:47.218Z,14.45
2022-10-01T04:52:50.945Z,15.75
2022-10-01T04:53:53.951Z,14.09
2022-10-01T04:54:56.625Z,15.63
2022-10-01T04:55:59.193Z,14.90
2022-10-01T04:57:01.903Z,15.22
2022-10-01T04:58:04.722Z,14.37
2022-10-01T04:59:07.547Z,14.23
2022-10-01T05:00:14.221Z,14.37
2022-10-01T05:01:17.449Z,13.66
2022-10-01T05:02:20.691Z,14.26
2022-10-01T05:03:23.596Z,14.64
2022-10-01T05:04:27.006Z,15.79
2022-10-01T05:05:31.815Z,14.19
2022-10-01T05:06:34.720Z,13.57
2022-10-01T05:07:39.510Z,13.39
2022-10-01T05:08:42.396Z,14.11
2022-10-01T05:09:45.231Z,14.36
2022-10-01T05:10:48.290Z,12.59
2022-10-01T05:11:51.510Z,12.97
2022-10-01T05:12:54.372Z,13.47
2022-10-01T05:13:56.979Z,13.64
2022-10-01T05:14:59.803Z,14.31
2022-10-01T05:16:03.226Z,13.32
2022-10-01T05:17:06.777Z,13.04
2022-10-01T05:18:09.496Z,13.26
2022-10-01T05:19:12.241Z,13.30
2022-10-01T05:20:18.439Z,13.07
2022-10-01T05:21:21.458Z,13.37
2022-10-01T05:22:24.362Z,12.80
2022-10-01T05:23:27.019Z,13.39
2022-10-01T05:24:29.625Z,12.30
2022-10-01T05:25:32.549Z,13.14
2022-10-01T05:26:37.511Z,12.13
2022-10-01T05:27:40.413Z,12.62
2022-10-01T05:28:44.108Z,12.88
2022-10-01T05:29:47.057Z,13.03
2022-10-01T05:30:50.551Z,11.58
2022-10-01T05:31:53.527Z,11.74
2022-10-01T05:32:59.370Z,11.25
2022-10-01T05:34:02.001Z,11.12
2022-10-01T05:35:06.640Z,12.13
2022-10-01T05:36:09.618Z,11.36
2022-10-01T05:37:12.444Z,11.61
2022-10-01T05:38:15.382Z,11.71
2022-10-01T05:39:18.117Z,11.47
2022-10-01T05:40:21.036Z,11.28
2022-10-01T05:41:24.100Z,11.12
2022-10-01T05:42:26.916Z,11.68
2022-10-01T05:43:30.133Z,10.90
2022-10-01T05:44:34.927Z,10.66
2022-10-01T05:45:38.496Z,10.97
2022-10-01T05:46:43.108Z,10.82
2022-10-01T05:47:47.244Z,10.65
2022-10-01T05:48:50.798Z,11.25
2022-10-01T05:49:53.733Z,11.18
2022-10-01T05:50:58.212Z,9.74
2022-10-01T05:52:01.223Z,11.02
2022-10-01T05:53:04.285Z,11.23
2022-10-01T05:54:07.760Z,9.63
2022-10-01T05:55:10.565Z,10.75
2022-10-01T05:56:13.757Z,10.23
2022-10-01T05:57:16.491Z,11.12
2022-10-01T05:58:19.135Z,10.68
2022-10-01T05:59:21.864Z,10.61
2022-10-01T06:00:27.172Z,10.56
2022-10-01T06:01:32.029Z,10.52
2022-10-01T06:02:35.313Z,10.09
2022-10-01T06:03:38.318Z,9.84
2022-10-01T06:04:41.521Z,10.06
2022-10-01T06:05:44.612Z,10.91
2022-10-01T06:06:47.408Z,10.44
2022-10-01T06:07:51.291Z,10.30
2022-10-01T06:08:54.283Z,10.01
2022-10-01T06:09:57.049Z,10.18
2022-10-01T06:11:01.273Z,10.20
2022-10-01T06:12:06.576Z,10.22
2022-10-01T06:13:10.034Z,9.83
2022-10-01T06:14:12.520Z,10.47
2022-10-01T06:15:16.976Z,9.70
2022-10-01T06:16:20.423Z,10.30
2022-10-01T06:17:23.447Z,10.23
2022-10-01T06:18:26.780Z,10.39
2022-10-01T06:19:29.384Z,10.15
2022-10-01T06:20:32.501Z,10.48
2022-10-01T06:21:35.589Z,10.15
2022-10-01T06:22:40.349Z,9.14
2022-10-01T06:23:44.322Z,10.35
2022-10-01T06:24:47.147Z,10.44
2022-10-01T06:25:49.751Z,10.36
2022-10-01T06:26:52.332Z,11.24
2022-10-01T06:27:57.384Z,10.62
2022-10-01T06:29:02.098Z,11.31
2022-10-01T06:30:05.662Z,10.91
2022-10-01T06:31:08.354Z,10.76
2022-10-01T06:32:12.822Z,10.19
2022-10-01T06:33:17.157Z,9.54
2022-10-01T06:34:20.173Z,10.69
2022-10-01T06:35:23.036Z,10.96
2022-10-01T06:36:25.623Z,11.33
2022-10-01T06:37:28.309Z,11.19
2022-10-01T06:38:30.987Z,12.21
2022-10-01T06:39:34.039Z,11.14
2022-10-01T06:40:37.424Z,10.68
2022-10-01T06:41:41.916Z,10.41
2022-10-01T06:42:48.323Z,11.53
2022-10-01T06:43:50.934Z,10.56
2022-10-01T06:44:53.827Z,12.03
2022-10-01T06:45:56.902Z,10.49
2022-10-01T06:46:59.915Z,9.69
2022-10-01T06:48:02.853Z,10.21
2022-10-01T06:49:05.531Z,9.67
2022-10-01T06:50:08.798Z,9.34
2022-10-01T06:51:11.712Z,10.22
2022-10-01T06:52:34.600Z,9.36
2022-10-01T06:53:37.404Z,9.58
2022-10-01T06:54:40.233Z,10.11
2022-10-01T06:55:44.182Z,9.54
2022-10-01T06:56:47.034Z,10.00
2022-10-01T06:57:57.918Z,9.94
2022-10-01T07:00:03.653Z,9.65
2022-10-01T07:01:06.271Z,9.95
2022-10-01T07:02:14.614Z,9.46
2022-10-01T07:03:20.347Z,9.56
2022-10-01T07:04:23.342Z,9.34
2022-10-01T07:05:27.168Z,10.54
2022-10-01T07:06:31.382Z,9.12
2022-10-01T07:07:36.919Z,9.65
2022-10-01T07:08:39.899Z,9.97
2022-10-01T07:09:42.718Z,9.66
2022-10-01T07:10:45.541Z,10.96
2022-10-01T07:11:48.636Z,10.14
2022-10-01T07:12:51.483Z,9.44
2022-10-01T07:13:54.876Z,10.39
2022-10-01T07:14:57.912Z,9.46
2022-10-01T07:16:03.592Z,9.56
2022-10-01T07:17:06.323Z,9.78
2022-10-01T07:18:10.627Z,9.23
2022-10-01T07:19:13.463Z,9.54
2022-10-01T07:20:20.884Z,9.51
2022-10-01T07:21:23.935Z,9.07
2022-10-01T07:22:26.657Z,8.66
2022-10-01T07:23:29.223Z,9.32
2022-10-01T07:24:32.137Z,8.41
2022-10-01T07:25:34.869Z,9.48
2022-10-01T07:26:37.491Z,9.08
2022-10-01T07:28:38.205Z,8.78
2022-10-01T07:29:41.659Z,9.28
2022-10-01T07:30:47.027Z,8.60
2022-10-01T07:31:53.594Z,8.91
2022-10-01T07:32:56.699Z,8.76
2022-10-01T07:33:59.583Z,8.44
2022-10-01T07:35:03.019Z,7.98
2022-10-01T07:36:07.580Z,8.56
2022-10-01T07:37:10.734Z,7.97
2022-10-01T07:38:13.611Z,7.99
2022-10-01T07:39:16.643Z,8.68
2022-10-01T07:40:19.460Z,8.16
2022-10-01T07:41:22.439Z,8.69
2022-10-01T07:42:26.611Z,8.43
2022-10-01T07:43:31.103Z,8.33
2022-10-01T07:44:34.226Z,8.52
2022-10-01T07:45:37.175Z,8.38
2022-10-01T07:46:40.293Z,7.92
2022-10-01T07:47:43.149Z,8.18
2022-10-01T07:48:48.360Z,8.39
2022-10-01T07:49:51.352Z,8.52
2022-10-01T07:50:54.181Z,7.95
2022-10-01T07:51:58.456Z,8.31
2022-10-01T07:53:02.304Z,8.24
2022-10-01T07:54:05.644Z,8.41
2022-10-01T07:55:10.390Z,9.29
2022-10-01T07:56:13.982Z,8.47
2022-10-01T07:57:17.132Z,9.03
2022-10-01T07:58:21.975Z,8.83
2022-10-01T07:59:26.733Z,8.89
2022-10-01T08:00:32.459Z,7.91
2022-10-01T08:01:35.995Z,8.91
2022-10-01T08:02:39.435Z,8.57
2022-10-01T08:03:42.384Z,9.26
2022-10-01T08:05:02.853Z,9.44
2022-10-01T08:06:06.347Z,10.23
2022-10-01T08:07:09.370Z,10.08
2022-10-01T08:08:12.419Z,9.73
2022-10-01T08:09:15.631Z,8.88
2022-10-01T08:10:22.663Z,8.78
2022-10-01T08:11:25.855Z,9.59
2022-10-01T08:12:29.886Z,10.39
2022-10-01T08:13:34.595Z,9.16
2022-10-01T08:14:37.400Z,8.96
2022-10-01T08:15:46.566Z,9.29
2022-10-01T08:16:49.471Z,10.13
2022-10-01T08:17:52.325Z,9.42
2022-10-01T08:18:55.286Z,9.97
2022-10-01T08:19:58.011Z,9.23
2022-10-01T08:21:02.852Z,10.14
2022-10-01T08:22:06.757Z,9.63
2022-10-01T08:23:12.544Z,9.88
2022-10-01T08:24:15.606Z,9.90
2022-10-01T08:25:18.961Z,9.34
2022-10-01T08:26:22.030Z,8.76
2022-10-01T08:27:25.914Z,9.28
2022-10-01T08:28:29.179Z,9.07
2022-10-01T08:29:33.847Z,9.26
2022-10-01T08:30:40.251Z,8.15
2022-10-01T08:31:43.225Z,8.13
2022-10-01T08:32:45.989Z,9.40
2022-10-01T08:33:48.851Z,8.48
2022-10-01T08:34:56.619Z,8.83
2022-10-01T08:36:01.154Z,8.21
2022-10-01T08:37:04.050Z,8.27
2022-10-01T08:38:07.287Z,8.34
2022-10-01T08:39:12.952Z,8.74
2022-10-01T08:40:18.934Z,8.72
2022-10-01T08:41:31.114Z,8.34
2022-10-01T08:43:01.431Z,8.45
2022-10-01T08:44:07.005Z,8.34
2022-10-01T08:45:13.555Z,8.70
2022-10-01T08:46:20.155Z,8.75
2022-10-01T08:47:26.653Z,9.12
2022-10-01T08:48:57.159Z,9.17
2022-10-01T08:50:02.159Z,10.72
2022-10-01T08:51:11.316Z,8.59
2022-10-01T08:52:29.190Z,9.49
2022-10-01T08:53:35.721Z,9.91
2022-10-01T08:54:57.442Z,9.81
2022-10-01T08:56:02.047Z,9.28
2022-10-01T08:57:08.205Z,9.46
2022-10-01T08:58:14.511Z,9.43
2022-10-01T08:59:24.139Z,9.72
2022-10-01T09:00:26.927Z,10.50
2022-10-01T09:01:30.610Z,10.04
2022-10-01T09:02:41.699Z,10.09
2022-10-01T09:03:44.916Z,10.47
2022-10-01T09:04:50.703Z,9.84
2022-10-01T09:06:15.384Z,11.01
2022-10-01T09:07:21.912Z,10.91
2022-10-01T09:08:47.337Z,11.47
2022-10-01T09:09:55.643Z,12.35
2022-10-01T09:11:02.074Z,13.43
2022-10-01T09:12:11.139Z,12.44
2022-10-01T09:13:50.282Z,12.62
2022-10-01T09:14:59.606Z,12.92
2022-10-01T09:16:15.110Z,12.89
2022-10-01T09:17:24.598Z,13.30
2022-10-01T09:19:07.383Z,13.53
2022-10-01T09:20:15.202Z,13.74
2022-10-01T09:21:37.164Z,14.64
2022-10-01T09:22:43.886Z,13.74
2022-10-01T09:23:56.245Z,14.57
2022-10-01T09:25:20.834Z,13.79
2022-10-01T09:26:25.819Z,13.06
2022-10-01T09:27:28.915Z,12.98
2022-10-01T09:28:34.856Z,13.53
2022-10-01T09:29:41.262Z,13.18
2022-10-01T09:30:50.710Z,12.25
2022-10-01T09:31:54.655Z,12.70
2022-10-01T09:33:15.948Z,12.72
2022-10-01T09:34:23.384Z,11.52
2022-10-01T09:35:38.782Z,12.09
2022-10-01T09:36:47.916Z,11.83
2022-10-01T09:38:09.165Z,11.93
2022-10-01T09:39:21.219Z,12.01
2022-10-01T09:40:49.068Z,11.51
2022-10-01T09:41:52.212Z,11.67
2022-10-01T09:42:55.904Z,10.26
2022-10-01T09:43:58.638Z,10.14
2022-10-01T09:45:01.457Z,9.46
2022-10-01T09:46:14.867Z,9.14
2022-10-01T09:47:20.153Z,9.39
2022-10-01T09:48:42.657Z,9.22
2022-10-01T09:49:45.713Z,9.69
2022-10-01T09:50:58.485Z,10.23
2022-10-01T09:52:07.833Z,9.82
2022-10-01T09:53:14.277Z,10.47
2022-10-01T09:54:36.059Z,10.65
2022-10-01T09:55:45.302Z,9.94
2022-10-01T09:56:51.810Z,10.24
2022-10-01T09:58:10.135Z,10.02
2022-10-01T09:59:16.865Z,10.83
2022-10-01T10:00:22.189Z,10.28
2022-10-01T10:01:47.101Z,9.53
2022-10-01T10:02:51.827Z,9.48
2022-10-01T10:03:57.122Z,9.90
2022-10-01T10:05:10.026Z,9.12
2022-10-01T10:06:13.356Z,9.86
2022-10-01T10:07:18.668Z,10.03
2022-10-01T10:08:36.144Z,9.67
2022-10-01T10:09:40.836Z,9.58
2022-10-01T10:11:00.039Z,9.16
2022-10-01T10:12:03.275Z,9.43
2022-10-01T10:13:26.214Z,10.32
2022-10-01T10:14:35.224Z,11.54
2022-10-01T10:15:41.740Z,9.81
2022-10-01T10:16:46.730Z,9.22
2022-10-01T10:17:51.318Z,8.82
2022-10-01T10:19:03.581Z,9.86
2022-10-01T10:20:22.686Z,10.17
2022-10-01T10:21:31.554Z,9.50
2022-10-01T10:22:34.547Z,9.22
2022-10-01T10:23:47.159Z,9.39
2022-10-01T10:24:51.152Z,8.68
2022-10-01T10:26:02.829Z,9.12
2022-10-01T10:27:08.996Z,9.02
2022-10-01T10:28:18.485Z,8.33
2022-10-01T10:29:33.198Z,9.36
2022-10-01T10:30:36.735Z,9.02
2022-10-01T10:31:44.859Z,8.90
2022-10-01T10:32:47.852Z,9.26
2022-10-01T10:33:57.413Z,9.80
2022-10-01T10:35:04.625Z,9.33
2022-10-01T10:36:08.897Z,9.69
2022-10-01T10:37:14.908Z,9.61
2022-10-01T10:38:19.951Z,9.17
2022-10-01T10:39:28.348Z,9.04
2022-10-01T10:40:42.956Z,9.68
2022-10-01T10:41:47.714Z,10.69
2022-10-01T10:42:53.061Z,11.72
2022-10-01T10:43:59.969Z,10.24
2022-10-01T10:45:03.541Z,10.89
2022-10-01T10:46:09.118Z,8.94
2022-10-01T10:47:15.121Z,10.17
2022-10-01T10:48:19.102Z,9.30
2022-10-01T10:50:42.657Z,10.87
2022-10-01T10:51:52.395Z,9.41
2022-10-01T10:52:56.246Z,9.80
2022-10-01T10:54:00.825Z,11.39
2022-10-01T10:55:25.403Z,10.04
2022-10-01T10:56:28.281Z,9.87
2022-10-01T10:57:33.754Z,9.52
2022-10-01T10:58:38.671Z,9.56
2022-10-01T10:59:41.891Z,9.24
2022-10-01T11:00:47.673Z,12.28
2022-10-01T11:01:52.201Z,9.74
2022-10-01T11:02:58.676Z,9.62
2022-10-01T11:04:01.621Z,9.09
2022-10-01T11:05:13.689Z,8.15
2022-10-01T11:06:18.145Z,7.84
2022-10-01T11:07:23.916Z,8.66
2022-10-01T11:08:28.456Z,7.25
2022-10-01T11:10:58.141Z,7.57
2022-10-01T11:12:20.993Z,8.33
2022-10-01T11:13:45.589Z,7.68
2022-10-01T11:15:08.751Z,7.87
2022-10-01T11:16:21.820Z,7.00
2022-10-01T11:17:38.515Z,7.32
2022-10-01T11:18:43.075Z,7.23
2022-10-01T11:20:05.337Z,7.72
2022-10-01T11:21:31.130Z,6.71
2022-10-01T11:22:54.389Z,9.04
2022-10-01T11:24:22.219Z,8.71
2022-10-01T11:25:31.373Z,9.99
2022-10-01T11:26:44.208Z,6.88
2022-10-01T11:28:22.642Z,6.83
2022-10-01T11:29:32.418Z,6.37
2022-10-01T11:30:57.685Z,6.77
2022-10-01T11:32:36.001Z,5.98
2022-10-01T11:33:55.109Z,7.16
2022-10-01T11:35:13.714Z,6.64
2022-10-01T11:36:25.132Z,6.08
2022-10-01T11:37:47.293Z,7.57
2022-10-01T11:39:17.208Z,7.94
2022-10-01T11:40:38.881Z,7.25
2022-10-01T11:41:51.259Z,5.97
2022-10-01T11:42:57.826Z,6.51
2022-10-01T11:44:17.735Z,7.84
2022-10-01T11:45:39.381Z,7.82
2022-10-01T11:46:54.695Z,6.12
2022-10-01T11:48:06.954Z,6.87
2022-10-01T11:49:34.409Z,5.50
2022-10-01T11:50:46.654Z,5.55
2022-10-01T11:51:53.282Z,5.49
2022-10-01T11:52:59.710Z,6.16
2022-10-01T11:54:06.328Z,5.98
2022-10-01T11:55:46.164Z,6.35
2022-10-01T11:57:10.985Z,5.56
2022-10-01T11:58:38.900Z,4.83
2022-10-01T11:59:51.481Z,6.36
2022-10-01T12:00:57.989Z,8.04
2022-10-01T12:02:04.498Z,4.94
2022-10-01T12:03:11.070Z,3.67
2022-10-01T12:04:26.476Z,5.46
2022-10-01T12:05:31.565Z,6.99
2022-10-01T12:06:41.380Z,4.92
2022-10-01T12:07:49.059Z,7.67
2022-10-01T12:08:55.880Z,4.27
2022-10-01T12:10:11.143Z,3.96
2022-10-01T12:11:20.295Z,3.82
2022-10-01T12:13:43.790Z,3.60
2022-10-01T12:15:06.977Z,3.73
2022-10-01T12:16:40.825Z,3.73
2022-10-01T12:17:56.277Z,3.60
2022-10-01T12:19:17.556Z,4.55
2022-10-01T12:20:24.107Z,5.35
2022-10-01T12:21:36.581Z,4.24
2022-10-01T12:22:41.752Z,5.18
2022-10-01T12:23:51.084Z,3.94
2022-10-01T12:24:54.073Z,3.48
2022-10-01T12:26:27.612Z,3.37
2022-10-01T12:27:48.980Z,3.78
2022-10-01T12:29:13.880Z,3.78
2022-10-01T12:30:25.256Z,3.01
2022-10-01T12:31:48.343Z,3.35
2022-10-01T12:33:12.581Z,3.35
2022-10-01T12:34:24.749Z,2.72
2022-10-01T12:35:48.716Z,3.64
2022-10-01T12:37:08.963Z,2.87
2022-10-01T12:38:30.356Z,4.28
2022-10-01T12:39:36.979Z,3.83
2022-10-01T12:40:43.665Z,3.58
2022-10-01T12:42:02.617Z,2.83
2022-10-01T12:44:49.906Z,3.43
2022-10-01T12:46:11.757Z,5.53
2022-10-01T12:47:38.062Z,4.13
2022-10-01T12:48:54.285Z,3.42
2022-10-01T12:50:06.856Z,4.15
2022-10-01T12:51:37.664Z,4.53
2022-10-01T12:52:53.209Z,3.51
2022-10-01T12:54:14.700Z,3.99
2022-10-01T12:55:21.130Z,2.96
2022-10-01T12:56:29.451Z,2.57
2022-10-01T12:57:45.295Z,3.02
2022-10-01T12:58:54.688Z,5.12
2022-10-01T13:00:10.342Z,2.73
2022-10-01T13:01:35.521Z,2.61
2022-10-01T13:02:56.992Z,2.84
2022-10-01T13:04:30.760Z,3.70
2022-10-01T13:05:59.853Z,3.09
2022-10-01T13:07:12.043Z,4.94
2022-10-01T13:08:24.077Z,4.10
2022-10-01T13:09:53.381Z,3.95
2022-10-01T13:11:06.243Z,2.68
2022-10-01T13:12:36.772Z,2.57
2022-10-01T13:13:40.092Z,3.09
2022-10-01T13:14:44.701Z,3.49
2022-10-01T13:15:50.798Z,3.73
2022-10-01T13:16:57.676Z,2.19
2022-10-01T13:18:26.977Z,3.06
2022-10-01T13:19:39.239Z,4.38
2022-10-01T13:20:50.348Z,3.50
2022-10-01T13:21:59.846Z,5.74
2022-10-01T13:23:15.672Z,2.07
2022-10-01T13:24:23.526Z,1.92
2022-10-01T13:25:36.985Z,2.12
2022-10-01T13:26:49.653Z,2.28
2022-10-01T13:27:59.130Z,2.26
2022-10-01T13:29:38.917Z,1.67
2022-10-01T13:31:00.234Z,3.31
2022-10-01T13:32:06.119Z,1.67
2022-10-01T13:33:29.475Z,2.44
2022-10-01T13:34:41.344Z,3.89
2022-10-01T13:35:47.829Z,1.92
2022-10-01T13:36:51.110Z,1.84
2022-10-01T13:37:54.127Z,3.06
2022-10-01T13:38:56.936Z,2.58
2022-10-01T13:40:00.476Z,1.82
2022-10-01T13:41:06.895Z,3.21
2022-10-01T13:42:22.573Z,4.23
2022-10-01T13:43:25.698Z,3.51
2022-10-01T13:44:34.899Z,2.43
2022-10-01T13:45:44.180Z,2.26
2022-10-01T13:48:13.394Z,3.90
2022-10-01T13:50:38.127Z,2.26
2022-10-01T13:51:43.609Z,1.73
2022-10-01T13:52:46.672Z,2.21
2022-10-01T13:53:53.378Z,3.15
2022-10-01T13:54:58.381Z,7.60
2022-10-01T13:56:02.104Z,1.73
2022-10-01T13:57:10.219Z,3.18
2022-10-01T13:58:25.739Z,3.38
2022-10-01T13:59:33.707Z,1.64
2022-10-01T14:00:40.587Z,4.53
2022-10-01T14:01:44.101Z,1.85
2022-10-01T14:03:08.387Z,3.54
2022-10-01T14:04:17.994Z,2.51
2022-10-01T14:05:27.783Z,2.91
2022-10-01T14:06:39.818Z,2.78
2022-10-01T14:07:45.111Z,4.53
2022-10-01T14:09:00.860Z,2.17
2022-10-01T14:10:04.825Z,2.30
2022-10-01T14:11:29.311Z,2.12
2022-10-01T14:12:52.459Z,4.22
2022-10-01T14:14:17.272Z,2.84
2022-10-01T14:15:41.483Z,2.27
2022-10-01T14:16:46.937Z,2.27
2022-10-01T14:17:52.314Z,3.23
2022-10-01T14:18:55.785Z,3.55
2022-10-01T14:20:00.456Z,3.12
2022-10-01T14:21:26.905Z,4.98
2022-10-01T14:22:36.124Z,2.26
2022-10-01T14:24:08.355Z,2.28
2022-10-01T14:25:49.255Z,2.42
2022-10-01T14:26:54.906Z,7.84
2022-10-01T14:28:23.913Z,1.68
2022-10-01T14:29:55.993Z,2.93
2022-10-01T14:31:14.646Z,4.09
2022-10-01T14:32:33.306Z,2.22
2022-10-01T14:33:42.814Z,2.92
2022-10-01T14:35:10.126Z,4.06
2022-10-01T14:36:16.733Z,3.82
2022-10-01T14:37:20.083Z,2.97
2022-10-01T14:38:23.247Z,3.36
2022-10-01T14:39:28.076Z,2.59
2022-10-01T14:40:42.634Z,4.67
2022-10-01T14:41:47.775Z,4.96
2022-10-01T14:42:58.438Z,3.72
2022-10-01T14:44:01.924Z,2.98
2022-10-01T14:45:16.444Z,5.17
2022-10-01T14:46:19.528Z,4.06
2022-10-01T14:47:24.776Z,2.71
2022-10-01T14:48:32.985Z,3.23
2022-10-01T14:49:35.905Z,4.93
2022-10-01T14:50:39.530Z,3.64
2022-10-01T14:51:51.919Z,3.06
2022-10-01T14:52:54.986Z,3.72
2022-10-01T14:53:59.819Z,3.71
2022-10-01T14:55:05.914Z,5.70
2022-10-01T14:56:14.389Z,5.20
2022-10-01T14:57:41.832Z,3.95
2022-10-01T14:58:48.364Z,4.53
2022-10-01T14:59:51.241Z,3.86
2022-10-01T15:00:56.332Z,4.88
2022-10-01T15:02:02.494Z,5.41
2022-10-01T15:03:15.131Z,6.78
2022-10-01T15:04:21.580Z,4.82
2022-10-01T15:05:30.378Z,4.50
2022-10-01T15:06:37.114Z,4.59
2022-10-01T15:07:40.322Z,5.22
2022-10-01T15:08:47.275Z,4.26
2022-10-01T15:09:50.649Z,4.73